Time;durP1;ratioP1;P1;durP2;ratioP2;P2;SDS_P1;SDS_P2;PMS_P1;PMS_P2;Temp;Humidity;BMP_temperature;BMP_pressure;BME280_temperature;BME280_humidity;BME280_pressure;Samples;Min_cycle;Max_cycle;Signal;HPM_P1;HPM_P2
2022/10/12 00:00:05;;;;;;;14.85;9.80;;;;;;;13.63;70.80;100562.66;4469605;32;34669;-74
2022/10/12 00:02:39;;;;;;;13.65;9.50;;;;;;;13.43;71.64;100557.72;4469658;32;33585;-75
2022/10/12 00:05:07;;;;;;;14.00;9.90;;;;;;;13.46;71.70;100560.78;4469392;32;33792;-75
2022/10/12 00:07:35;;;;;;;13.70;9.82;;;;;;;13.98;69.72;100550.66;4469442;32;33930;-75
2022/10/12 00:10:03;;;;;;;17.00;10.02;;;;;;;13.93;69.65;100562.28;4468799;32;34583;-75
2022/10/12 00:12:31;;;;;;;16.10;10.27;;;;;;;13.65;70.83;100557.78;4469772;32;33090;-75
2022/10/12 00:14:58;;;;;;;13.90;9.68;;;;;;;13.59;71.07;100562.34;4469477;32;33863;-75
2022/10/12 00:17:25;;;;;;;13.10;9.32;;;;;;;13.63;70.87;100554.47;4474279;32;34277;-75
2022/10/12 00:19:53;;;;;;;15.80;10.10;;;;;;;13.68;70.90;100557.31;4485673;32;33989;-75
2022/10/12 00:22:20;;;;;;;15.30;10.43;;;;;;;13.97;69.48;100552.53;4485037;32;33389;-75
2022/10/12 00:24:48;;;;;;;14.20;10.20;;;;;;;14.10;68.53;100559.53;4485167;32;33773;-74
2022/10/12 00:27:15;;;;;;;15.73;10.63;;;;;;;14.08;68.39;100558.94;4474061;32;34091;-75
2022/10/12 00:29:42;;;;;;;15.85;10.70;;;;;;;14.07;68.31;100560.03;4469232;32;32980;-75
2022/10/12 00:32:10;;;;;;;15.02;10.68;;;;;;;14.12;67.92;100554.63;4469565;32;33186;-75
2022/10/12 00:34:37;;;;;;;14.05;9.45;;;;;;;14.10;67.91;100559.53;4469506;32;33670;-75
2022/10/12 00:37:05;;;;;;;13.02;9.23;;;;;;;14.05;67.95;100562.19;4469033;32;34105;-76
2022/10/12 00:39:32;;;;;;;15.45;9.85;;;;;;;14.02;67.90;100557.25;4469055;32;33830;-75
2022/10/12 00:42:00;;;;;;;13.52;9.13;;;;;;;13.92;68.21;100564.19;4468934;32;33367;-74
2022/10/12 00:44:42;;;;;;;15.38;10.07;;;;;;;13.78;68.70;100559.34;4469092;32;34073;-75
2022/10/12 00:47:29;;;;;;;14.40;9.65;;;;;;;13.67;69.38;100555.63;4467940;32;34940;-75
2022/10/12 00:49:59;;;;;;;12.37;9.00;;;;;;;13.83;68.58;100553.97;4469361;32;34521;-75
2022/10/12 00:52:33;;;;;;;14.57;9.32;;;;;;;13.66;68.96;100552.09;4469216;32;33666;-75
2022/10/12 00:55:01;;;;;;;12.02;8.52;;;;;;;13.74;68.48;100548.13;4467961;32;34851;-75
2022/10/12 00:57:29;;;;;;;13.30;9.43;;;;;;;13.73;68.10;100555.47;4467476;32;34304;-74
2022/10/12 01:00:04;;;;;;;13.18;9.43;;;;;;;13.53;68.64;100558.72;4469082;32;34676;-75
2022/10/12 01:02:33;;;;;;;14.43;9.88;;;;;;;13.67;68.15;100564.66;4469077;32;33513;-75
2022/10/12 01:05:01;;;;;;;12.37;9.60;;;;;;;13.53;68.40;100557.88;4467847;32;33964;-75
2022/10/12 01:07:29;;;;;;;13.07;8.73;;;;;;;13.53;68.41;100558.72;4468781;32;34409;-75
2022/10/12 01:09:57;;;;;;;13.20;9.38;;;;;;;13.48;68.03;100561.38;4468555;32;33422;-74
2022/10/12 01:12:25;;;;;;;13.48;10.02;;;;;;;13.49;68.44;100564.91;4469449;32;33590;-75
2022/10/12 01:14:53;;;;;;;15.15;10.27;;;;;;;13.11;69.58;100571.88;4468708;32;34744;-74
2022/10/12 01:17:25;;;;;;;13.68;9.60;;;;;;;13.08;69.76;100567.72;4468708;32;34979;-74
2022/10/12 01:20:34;;;;;;;14.07;9.07;;;;;;;12.77;71.13;100574.53;4467505;32;33993;-73
2022/10/12 01:23:17;;;;;;;14.95;9.73;;;;;;;13.12;70.00;100570.78;4459709;32;34368;-75
2022/10/12 01:26:15;;;;;;;14.82;11.18;;;;;;;12.99;69.92;100582.81;4470970;32;33961;-75
2022/10/12 01:29:11;;;;;;;13.80;10.20;;;;;;;13.32;69.06;100579.34;4469326;32;34360;-75
2022/10/12 01:31:43;;;;;;;14.60;9.43;;;;;;;12.97;70.17;100573.25;4470771;32;33883;-74
2022/10/12 01:34:16;;;;;;;19.05;10.73;;;;;;;12.86;70.83;100583.13;4469716;32;32265;-75
2022/10/12 01:36:47;;;;;;;13.52;10.15;;;;;;;12.87;71.10;100585.63;4470584;32;34053;-75
2022/10/12 01:39:30;;;;;;;13.02;9.63;;;;;;;12.98;70.70;100585.78;4469340;32;35076;-75
2022/10/12 01:42:00;;;;;;;13.57;9.80;;;;;;;13.28;69.83;100583.66;4469244;32;34342;-75
2022/10/12 01:44:29;;;;;;;15.95;10.30;;;;;;;13.06;70.50;100583.50;4470544;32;33258;-75
2022/10/12 01:46:56;;;;;;;14.75;9.93;;;;;;;12.95;71.28;100580.84;4470715;32;34536;-75
2022/10/12 01:49:27;;;;;;;15.50;11.10;;;;;;;12.87;71.61;100582.03;4470676;32;34887;-75
2022/10/12 01:52:29;;;;;;;14.15;9.75;;;;;;;12.89;71.87;100591.66;4469270;32;34148;-75
2022/10/12 01:55:12;;;;;;;13.93;9.52;;;;;;;13.05;71.65;100581.84;4470549;32;33361;-75
2022/10/12 01:57:56;;;;;;;14.95;10.38;;;;;;;13.19;71.19;100587.81;4474703;32;34094;-75
2022/10/12 02:00:23;;;;;;;16.17;10.55;;;;;;;13.15;71.45;100589.37;4485073;32;33912;-72
2022/10/12 02:03:12;;;;;;;14.05;10.05;;;;;;;13.11;71.46;100596.41;4485931;32;33556;-74
2022/10/12 02:06:00;;;;;;;14.35;9.88;;;;;;;12.98;72.04;100592.09;4486283;32;33348;-75
2022/10/12 02:08:39;;;;;;;13.45;9.55;;;;;;;13.19;71.58;100595.97;4484997;32;33969;-75
2022/10/12 02:11:15;;;;;;;13.50;9.45;;;;;;;13.36;70.68;100597.94;4473349;32;34279;-75
2022/10/12 02:13:46;;;;;;;13.80;9.18;;;;;;;13.50;69.96;100594.66;4469558;32;33795;-75
2022/10/12 02:16:17;;;;;;;14.13;10.20;;;;;;;13.43;70.15;100583.06;4469432;32;34407;-75
2022/10/12 02:18:47;;;;;;;13.62;9.93;;;;;;;13.23;70.95;100590.88;4470418;32;33795;-74
2022/10/12 02:21:20;;;;;;;15.65;10.43;;;;;;;13.16;71.28;100588.31;4469156;32;34000;-74
2022/10/12 02:23:49;;;;;;;15.70;10.88;;;;;;;13.24;71.28;100590.66;4469328;32;33833;-75
2022/10/12 02:26:18;;;;;;;15.27;10.57;;;;;;;13.11;71.68;100582.78;4470563;32;33317;-75
2022/10/12 02:28:46;;;;;;;14.60;9.82;;;;;;;13.11;71.56;100582.78;4469040;32;35194;-75
2022/10/12 02:31:16;;;;;;;14.25;10.65;;;;;;;13.43;70.35;100582.25;4469803;32;34166;-75
2022/10/12 02:33:55;;;;;;;17.23;11.23;;;;;;;13.34;70.51;100584.56;4468939;32;34489;-73
2022/10/12 02:36:29;;;;;;;14.18;10.35;;;;;;;13.32;70.67;100582.06;4470702;32;33443;-75
2022/10/12 02:39:07;;;;;;;15.00;11.18;;;;;;;12.99;71.67;100582.00;4469019;32;34708;-73
2022/10/12 02:41:39;;;;;;;16.98;10.82;;;;;;;12.97;71.43;100579.53;4469071;32;33942;-75
2022/10/12 02:44:09;;;;;;;15.30;10.75;;;;;;;12.86;72.16;100580.41;4469238;32;33782;-75
2022/10/12 02:46:39;;;;;;;14.98;10.25;;;;;;;12.65;72.38;100579.19;4468536;32;33271;-75
2022/10/12 02:49:08;;;;;;;14.32;10.45;;;;;;;13.08;70.20;100580.53;4469767;32;33722;-74
2022/10/12 02:51:36;;;;;;;14.32;10.10;;;;;;;13.09;70.33;100588.47;4468612;32;34293;-75
2022/10/12 02:54:03;;;;;;;13.27;9.90;;;;;;;13.07;70.00;100585.16;4469163;32;34366;-75
2022/10/12 02:56:31;;;;;;;14.43;10.45;;;;;;;12.84;70.68;100586.09;4485705;32;33695;-75
2022/10/12 02:58:58;;;;;;;14.45;10.20;;;;;;;12.91;70.59;100586.78;4485708;32;33801;-74
2022/10/12 03:01:26;;;;;;;15.65;10.60;;;;;;;12.45;72.21;100594.03;4483544;32;33413;-74
2022/10/12 03:03:53;;;;;;;15.20;11.02;;;;;;;12.57;71.81;100588.56;4485094;32;34671;-74
2022/10/12 03:06:21;;;;;;;15.80;10.77;;;;;;;12.54;71.92;100586.31;4485754;32;34375;-74
2022/10/12 03:08:50;;;;;;;15.90;10.43;;;;;;;12.51;71.99;100589.53;4485667;32;34075;-75
2022/10/12 03:11:17;;;;;;;15.80;11.32;;;;;;;12.81;70.93;100588.50;4477116;32;34969;-75
2022/10/12 03:13:45;;;;;;;16.23;10.52;;;;;;;12.84;70.44;100594.25;4484824;32;33488;-75
2022/10/12 03:16:12;;;;;;;12.85;9.68;;;;;;;13.07;69.42;100590.59;4485180;32;34426;-74
2022/10/12 03:18:40;;;;;;;13.32;10.23;;;;;;;13.09;69.01;100598.53;4485871;31;34787;-75
2022/10/12 03:21:09;;;;;;;15.25;10.35;;;;;;;12.84;69.94;100594.25;4484663;32;34925;-75
2022/10/12 03:23:37;;;;;;;15.88;10.77;;;;;;;12.91;69.75;100599.56;4484875;32;33852;-74
2022/10/12 03:26:04;;;;;;;15.68;10.55;;;;;;;12.96;69.29;100599.66;4485700;32;33246;-75
2022/10/12 03:28:32;;;;;;;19.00;11.50;;;;;;;13.00;68.92;100598.12;4484188;32;34765;-75
2022/10/12 03:31:00;;;;;;;17.15;11.23;;;;;;;12.84;69.26;100596.97;4482009;32;34223;-73
2022/10/12 03:33:28;;;;;;;14.85;11.12;;;;;;;12.99;68.71;100590.19;4484765;32;33671;-74
2022/10/12 03:35:56;;;;;;;15.65;11.18;;;;;;;13.00;68.71;100594.53;4485605;32;34206;-74
2022/10/12 03:38:23;;;;;;;14.40;10.30;;;;;;;13.01;68.95;100598.94;4485846;32;33990;-75
2022/10/12 03:40:50;;;;;;;15.45;10.32;;;;;;;12.71;69.95;100592.66;4484817;32;35276;-74
2022/10/12 03:43:18;;;;;;;15.65;11.23;;;;;;;12.98;69.16;100597.53;4484821;32;34574;-75
2022/10/12 03:45:45;;;;;;;16.87;11.35;;;;;;;12.64;70.43;100591.16;4477071;32;34566;-74
2022/10/12 03:48:13;;;;;;;15.00;11.02;;;;;;;12.51;70.98;100598.50;4470089;32;34704;-75
2022/10/12 03:50:40;;;;;;;14.68;10.63;;;;;;;12.61;70.92;100592.47;4475334;32;34219;-75
2022/10/12 03:53:09;;;;;;;17.65;11.77;;;;;;;12.47;71.42;100596.53;4474292;32;33790;-75
2022/10/12 03:55:36;;;;;;;14.75;10.80;;;;;;;12.74;70.79;100596.78;4469894;32;34409;-74
2022/10/12 03:58:04;;;;;;;14.95;10.90;;;;;;;12.73;70.64;100590.50;4469600;32;34127;-73
2022/10/12 04:00:31;;;;;;;15.32;10.73;;;;;;;12.62;71.07;100596.81;4472306;32;34165;-74
2022/10/12 04:03:00;;;;;;;15.02;10.55;;;;;;;12.24;72.13;100592.75;4485446;32;33945;-75
2022/10/12 04:05:28;;;;;;;15.05;10.43;;;;;;;12.40;72.03;100588.50;4485107;32;34181;-74
2022/10/12 04:07:56;;;;;;;15.60;11.05;;;;;;;12.39;71.94;100584.09;4485311;32;34839;-75
2022/10/12 04:10:24;;;;;;;18.40;12.00;;;;;;;12.51;71.62;100587.62;4485429;32;34223;-73
2022/10/12 04:12:51;;;;;;;18.10;11.77;;;;;;;12.26;72.40;100581.66;4477631;32;34010;-73
2022/10/12 04:15:19;;;;;;;16.58;12.10;;;;;;;11.72;74.78;100589.94;4470128;32;33502;-74
2022/10/12 04:17:46;;;;;;;18.25;11.73;;;;;;;11.93;73.67;100585.84;4469664;32;33862;-74
2022/10/12 04:20:14;;;;;;;16.42;11.25;;;;;;;12.26;72.49;100584.38;4469528;32;33785;-75
2022/10/12 04:22:41;;;;;;;15.15;11.48;;;;;;;12.01;73.40;100582.75;4469676;32;33945;-74
2022/10/12 04:25:10;;;;;;;17.35;11.90;;;;;;;12.24;72.26;100586.50;4468793;32;33559;-74
2022/10/12 04:27:37;;;;;;;17.83;11.80;;;;;;;12.26;72.03;100589.81;4467674;32;33916;-77
2022/10/12 04:30:05;;;;;;;16.08;11.82;;;;;;;12.24;72.22;100586.50;4469564;32;34889;-72
2022/10/12 04:32:33;;;;;;;17.90;12.30;;;;;;;12.07;72.68;100594.56;4469532;32;34015;-77
2022/10/12 04:35:00;;;;;;;17.87;11.63;;;;;;;12.03;73.03;100593.37;4470860;32;34474;-76
2022/10/12 04:37:28;;;;;;;15.52;11.32;;;;;;;12.14;72.64;100594.44;4478818;32;34025;-79
2022/10/12 04:39:56;;;;;;;19.08;11.88;;;;;;;11.98;73.41;100594.09;4469168;32;34141;-85
2022/10/12 04:42:28;;;;;;;17.65;11.63;;;;;;;12.33;72.17;100590.50;4478416;32;33692;-91
2022/10/12 04:44:56;;;;;;;18.50;12.13;;;;;;;12.13;72.77;100587.34;4485120;32;33593;-91
2022/10/12 04:47:24;;;;;;;20.77;13.35;;;;;;;12.47;72.08;100597.34;4484070;32;33478;-77
2022/10/12 04:49:51;;;;;;;20.17;12.65;;;;;;;12.11;73.36;100595.75;4484991;32;33827;-85
2022/10/12 04:52:19;;;;;;;18.45;12.68;;;;;;;12.04;74.01;100593.16;4484292;32;33946;-78
2022/10/12 04:54:46;;;;;;;18.75;12.40;;;;;;;11.87;74.68;100597.63;4484593;32;34332;-76
2022/10/12 04:57:13;;;;;;;19.98;12.85;;;;;;;11.90;74.92;100605.34;4486009;32;33786;-81
2022/10/12 04:59:41;;;;;;;21.42;13.60;;;;;;;11.95;74.57;100602.75;4486435;32;35150;-75
2022/10/12 05:02:08;;;;;;;19.30;12.90;;;;;;;11.96;74.57;100606.28;4486610;32;33567;-75
2022/10/12 05:04:36;;;;;;;20.70;12.55;;;;;;;11.71;75.73;100610.03;4487023;32;33351;-77
2022/10/12 05:07:03;;;;;;;20.75;13.30;;;;;;;11.79;75.39;100604.25;4486578;32;34765;-76
2022/10/12 05:09:31;;;;;;;18.50;12.65;;;;;;;11.65;76.52;100597.38;4486466;32;34973;-74
2022/10/12 05:11:58;;;;;;;20.50;13.23;;;;;;;11.63;76.64;100611.19;4486770;32;33844;-79
2022/10/12 05:14:26;;;;;;;22.83;14.13;;;;;;;11.47;77.13;100604.56;4486499;32;34365;-78
2022/10/12 05:16:57;;;;;;;21.17;13.43;;;;;;;11.94;75.60;100608.41;4486784;32;33976;-77
2022/10/12 05:19:24;;;;;;;20.45;13.55;;;;;;;11.86;75.83;100618.56;4486429;31;35164;-77
2022/10/12 05:21:53;;;;;;;18.65;13.35;;;;;;;12.11;74.81;100614.78;4486636;32;34633;-75
2022/10/12 05:24:20;;;;;;;20.17;11.95;;;;;;;12.14;75.23;100619.75;4486146;32;34375;-77
2022/10/12 05:26:48;;;;;;;18.02;13.20;;;;;;;12.18;75.40;100611.94;4486546;32;34649;-76
2022/10/12 05:29:15;;;;;;;19.30;13.23;;;;;;;12.30;75.12;100615.47;4486570;32;35319;-76
2022/10/12 05:31:43;;;;;;;20.50;13.10;;;;;;;12.53;74.26;100617.34;4486330;32;34483;-76
2022/10/12 05:34:10;;;;;;;26.00;13.50;;;;;;;12.31;75.57;100619.87;4486564;32;33410;-78
2022/10/12 05:36:38;;;;;;;19.15;13.32;;;;;;;12.54;74.63;100626.31;4486509;32;34787;-77
2022/10/12 05:39:05;;;;;;;22.23;12.98;;;;;;;12.33;75.97;100615.00;4486262;32;34335;-77
2022/10/12 05:41:32;;;;;;;20.77;13.82;;;;;;;12.63;75.11;100622.97;4486084;32;34016;-77
2022/10/12 05:44:00;;;;;;;23.35;13.90;;;;;;;12.51;76.20;100625.72;4486478;32;34271;-76
2022/10/12 05:46:27;;;;;;;21.83;14.27;;;;;;;12.50;76.83;100628.69;4484526;32;33793;-77
2022/10/12 05:48:55;;;;;;;23.83;13.93;;;;;;;12.36;77.50;100628.13;4485920;32;35052;-77
2022/10/12 05:51:22;;;;;;;23.80;15.40;;;;;;;12.48;77.73;100630.81;4470642;32;33992;-77
2022/10/12 05:53:55;;;;;;;72.15;64.35;;;;;;;12.70;77.42;100631.84;4470419;32;34222;-76
2022/10/12 05:56:22;;;;;;;27.27;19.08;;;;;;;13.23;75.96;100632.56;4470441;32;34687;-78
2022/10/12 05:58:50;;;;;;;37.00;25.02;;;;;;;12.92;78.17;100640.19;4469887;32;34244;-78
2022/10/12 06:01:17;;;;;;;24.48;15.20;;;;;;;13.39;76.87;100632.88;4470822;32;33936;-78
2022/10/12 06:03:45;;;;;;;25.40;15.57;;;;;;;13.11;79.55;100637.28;4470662;32;33516;-78
2022/10/12 06:06:12;;;;;;;28.38;15.70;;;;;;;13.68;76.54;100641.84;4470576;32;33289;-75
2022/10/12 06:08:40;;;;;;;21.15;14.27;;;;;;;14.02;74.86;100639.94;4469542;32;34876;-83
2022/10/12 06:11:07;;;;;;;22.05;13.70;;;;;;;13.52;79.63;100646.22;4470686;32;33800;-83
2022/10/12 06:13:35;;;;;;;22.08;15.07;;;;;;;14.29;77.27;100644.66;4469257;32;34306;-85
2022/10/12 06:16:02;;;;;;;23.20;14.30;;;;;;;14.92;74.19;100651.53;4470373;32;33361;-78
2022/10/12 06:18:30;;;;;;;20.23;13.77;;;;;;;15.30;72.43;100646.19;4470501;32;35140;-79
2022/10/12 06:20:57;;;;;;;18.75;13.02;;;;;;;15.70;71.55;100648.47;4470358;32;34617;-77
2022/10/12 06:23:45;;;;;;;18.10;11.93;;;;;;;16.05;69.74;100649.06;4470523;32;33325;-77
2022/10/12 06:26:13;;;;;;;15.43;10.98;;;;;;;15.91;69.72;100649.47;4470204;32;34961;-75
2022/10/12 06:28:42;;;;;;;14.38;11.02;;;;;;;16.05;67.36;100646.31;4470232;32;33985;-76
2022/10/12 06:31:10;;;;;;;14.85;10.00;;;;;;;16.29;63.17;100646.75;4470647;32;33920;-75
2022/10/12 06:33:37;;;;;;;15.63;9.93;;;;;;;16.48;63.12;100658.03;4470255;32;33542;-77
2022/10/12 06:36:05;;;;;;;15.05;9.93;;;;;;;16.58;62.31;100649.88;4470239;32;34082;-77
2022/10/12 06:38:32;;;;;;;15.90;10.52;;;;;;;16.30;61.37;100651.94;4470282;32;34602;-79
2022/10/12 06:40:59;;;;;;;16.02;11.10;;;;;;;16.26;63.49;100658.19;4470020;32;33665;-79
2022/10/12 06:43:27;;;;;;;13.73;9.80;;;;;;;16.43;62.99;100656.12;4470225;32;33048;-77
2022/10/12 06:45:59;;;;;;;15.85;10.85;;;;;;;16.30;61.52;100656.59;4470214;32;34610;-79
2022/10/12 06:48:26;;;;;;;15.85;10.23;;;;;;;16.54;62.34;100671.53;4470425;32;34241;-79
2022/10/12 06:50:54;;;;;;;14.05;9.80;;;;;;;16.78;62.95;100674.66;4470329;32;34401;-79
2022/10/12 06:53:21;;;;;;;16.55;10.00;;;;;;;16.65;60.86;100666.94;4483650;32;33428;-79
2022/10/12 06:55:49;;;;;;;13.15;8.38;;;;;;;16.36;61.98;100664.56;4485806;32;34769;-75
2022/10/12 06:58:16;;;;;;;13.50;8.43;;;;;;;15.79;61.93;100673.47;4485991;32;34379;-78
2022/10/12 07:00:44;;;;;;;14.27;8.55;;;;;;;15.78;61.17;100671.81;4485845;32;34136;-78
2022/10/12 07:03:12;;;;;;;11.48;8.48;;;;;;;16.32;59.60;100676.31;4485858;32;33326;-78
2022/10/12 07:05:40;;;;;;;12.48;8.48;;;;;;;16.03;59.96;100679.41;4485908;32;33667;-78
2022/10/12 07:08:07;;;;;;;13.48;9.07;;;;;;;15.93;61.08;100673.84;4485750;32;33408;-90
2022/10/12 07:10:34;;;;;;;11.50;8.43;;;;;;;16.24;59.81;100665.84;4485936;32;34003;-78
2022/10/12 07:13:02;;;;;;;12.63;8.77;;;;;;;15.82;61.15;100664.75;4481748;32;33375;-74
2022/10/12 07:15:29;;;;;;;13.80;8.15;;;;;;;16.19;60.37;100663.91;4483716;32;34802;-83
2022/10/12 07:17:57;;;;;;;11.23;8.20;;;;;;;16.31;59.54;100671.94;4485272;32;34183;-76
2022/10/12 07:20:25;;;;;;;13.55;8.88;;;;;;;16.18;60.71;100675.97;4484437;32;33863;-76
2022/10/12 07:22:52;;;;;;;12.80;8.30;;;;;;;16.39;59.53;100668.69;4485097;32;33187;-77
2022/10/12 07:25:21;;;;;;;12.13;8.10;;;;;;;16.47;58.63;100670.09;4485190;32;34457;-75
2022/10/12 07:27:49;;;;;;;13.85;9.48;;;;;;;16.61;59.17;100672.09;4485249;32;34296;-80
2022/10/12 07:30:16;;;;;;;12.98;7.82;;;;;;;16.49;60.63;100674.22;4485704;32;33523;-80
2022/10/12 07:32:45;;;;;;;14.23;9.70;;;;;;;16.68;58.97;100671.06;4485442;32;33555;-79
2022/10/12 07:35:12;;;;;;;12.95;9.20;;;;;;;16.56;59.67;100657.56;4485651;32;34056;-77
2022/10/12 07:37:40;;;;;;;14.77;8.57;;;;;;;16.30;59.11;100664.81;4485657;32;33946;-77
2022/10/12 07:40:08;;;;;;;16.15;9.20;;;;;;;16.50;58.63;100667.69;4485321;32;33652;-78
2022/10/12 07:42:36;;;;;;;11.23;8.55;;;;;;;16.73;57.26;100671.06;4485210;32;33231;-77
2022/10/12 07:45:23;;;;;;;12.30;8.38;;;;;;;16.74;57.34;100664.50;4485442;32;33988;-77
2022/10/12 07:47:51;;;;;;;15.00;8.65;;;;;;;16.79;56.65;100672.72;4485678;32;34052;-77
2022/10/12 07:50:18;;;;;;;12.65;8.20;;;;;;;16.59;58.50;100665.25;4485323;32;34011;-77
2022/10/12 07:52:46;;;;;;;12.07;7.70;;;;;;;16.99;56.57;100669.28;4485454;32;33567;-80
2022/10/12 07:55:14;;;;;;;11.93;8.13;;;;;;;16.98;57.04;100668.47;4485592;32;34653;-79
2022/10/12 07:57:43;;;;;;;12.13;8.38;;;;;;;17.22;54.13;100668.78;4485396;32;35010;-79
2022/10/12 08:00:10;;;;;;;11.35;7.87;;;;;;;17.22;54.32;100667.97;4485302;32;33977;-79
2022/10/12 08:02:38;;;;;;;11.68;8.15;;;;;;;17.07;55.88;100667.94;4485383;32;33415;-77
2022/10/12 08:05:06;;;;;;;12.43;7.85;;;;;;;17.05;55.53;100675.59;4485387;32;34078;-78
2022/10/12 08:07:33;;;;;;;11.52;7.65;;;;;;;17.48;53.92;100676.25;4485270;32;35030;-77
2022/10/12 08:10:00;;;;;;;13.50;8.30;;;;;;;17.80;53.95;100676.84;4485676;32;33656;-80
2022/10/12 08:12:28;;;;;;;11.88;7.85;;;;;;;17.50;53.56;100674.06;4485802;32;33540;-78
2022/10/12 08:14:55;;;;;;;12.70;8.50;;;;;;;17.62;54.06;100678.22;4485080;32;33843;-77
2022/10/12 08:17:23;;;;;;;12.15;8.55;;;;;;;17.51;53.29;100681.19;4485285;31;33971;-82
2022/10/12 08:19:50;;;;;;;12.88;8.68;;;;;;;17.27;54.60;100676.22;4485268;32;33803;-80
2022/10/12 08:22:18;;;;;;;14.95;9.13;;;;;;;17.58;54.77;100671.59;4485065;32;34139;-78
2022/10/12 08:24:45;;;;;;;15.80;8.93;;;;;;;17.79;52.98;100672.44;4485608;32;34068;-76
2022/10/12 08:27:13;;;;;;;13.13;8.68;;;;;;;16.98;53.96;100668.47;4485176;32;35090;-76
2022/10/12 08:29:40;;;;;;;14.35;8.80;;;;;;;17.68;52.79;100676.28;4484866;32;34811;-76
2022/10/12 08:32:08;;;;;;;12.32;8.40;;;;;;;17.83;52.28;100673.56;4484771;32;33539;-77
2022/10/12 08:34:35;;;;;;;12.63;8.32;;;;;;;17.35;53.66;100675.69;4485166;32;34800;-76
2022/10/12 08:37:03;;;;;;;13.32;8.73;;;;;;;17.08;57.33;100664.09;4482924;32;34045;-81
2022/10/12 08:39:30;;;;;;;11.75;8.57;;;;;;;17.11;55.59;100671.78;4482219;32;87590;-77
2022/10/12 08:42:22;;;;;;;10.63;7.90;;;;;;;17.78;54.69;100672.72;4484913;32;33492;-76
2022/10/12 08:45:21;;;;;;;13.25;8.57;;;;;;;18.14;52.02;100670.81;4483704;32;33910;-80
2022/10/12 08:47:51;;;;;;;14.45;8.57;;;;;;;17.19;55.97;100668.50;4484867;32;35174;-87
2022/10/12 08:50:51;;;;;;;13.70;8.15;;;;;;;17.68;53.95;100659.81;4484946;32;33608;-85
2022/10/12 08:53:25;;;;;;;14.25;8.60;;;;;;;18.14;52.07;100667.22;4477445;32;33210;-79
2022/10/12 08:55:55;;;;;;;13.73;7.65;;;;;;;18.40;52.26;100666.09;4484697;32;33770;-77
2022/10/12 08:58:26;;;;;;;13.60;7.97;;;;;;;18.21;52.08;100670.53;4483480;32;35140;-78
2022/10/12 09:01:04;;;;;;;12.45;7.60;;;;;;;18.36;52.52;100670.50;4485124;32;33911;-83
2022/10/12 09:03:37;;;;;;;11.90;8.38;;;;;;;18.38;51.79;100678.44;4483552;32;33434;-83
2022/10/12 09:06:39;;;;;;;13.85;8.88;;;;;;;18.68;50.61;100672.03;4484608;32;34772;-82
2022/10/12 09:09:12;;;;;;;16.30;7.82;;;;;;;18.69;50.65;100670.94;4417636;31;34189;-78
2022/10/12 09:11:52;;;;;;;12.57;7.70;;;;;;;18.79;52.90;100675.59;4482677;32;34768;-78
2022/10/12 09:14:24;;;;;;;13.75;8.45;;;;;;;18.29;52.35;100674.63;4484690;32;33232;-77
2022/10/12 09:16:54;;;;;;;13.45;8.07;;;;;;;18.40;52.22;100674.34;4483335;32;34846;-79
2022/10/12 09:19:33;;;;;;;11.45;7.47;;;;;;;18.11;53.03;100668.59;4483662;31;33998;-79
2022/10/12 09:22:01;;;;;;;11.15;7.65;;;;;;;18.59;51.27;100671.78;4483271;32;33619;-90
2022/10/12 09:24:34;;;;;;;11.52;8.45;;;;;;;18.81;51.69;100676.97;4482962;32;33304;-78
2022/10/12 09:27:13;;;;;;;13.15;8.25;;;;;;;18.88;50.05;100670.34;4484629;32;34028;-94
2022/10/12 09:29:47;;;;;;;13.85;8.18;;;;;;;18.42;51.41;100677.63;4482698;32;34154;-91
2022/10/12 09:32:30;;;;;;;12.98;8.00;;;;;;;18.87;51.17;100680.50;4483398;32;33834;-90
2022/10/12 09:34:58;;;;;;;11.02;7.37;;;;;;;18.50;51.36;100675.41;4484087;32;34245;-93
2022/10/12 09:37:30;;;;;;;12.00;8.65;;;;;;;19.04;49.91;100667.22;4481114;32;35206;-79
2022/10/12 09:39:58;;;;;;;12.57;8.57;;;;;;;18.45;52.68;100670.75;4484226;32;33927;-92
2022/10/12 09:42:26;;;;;;;11.35;7.95;;;;;;;18.76;51.99;100668.69;4482738;32;34183;-93
2022/10/12 09:45:00;;;;;;;11.65;7.40;;;;;;;19.21;51.92;100668.81;4486644;32;33420;-81
2022/10/12 09:47:30;;;;;;;12.70;7.65;;;;;;;19.37;51.65;100666.78;4484915;32;33960;-92
2022/10/12 09:50:00;;;;;;;12.18;8.18;;;;;;;19.08;50.91;100666.69;4486351;32;34381;-89
2022/10/12 09:52:38;;;;;;;11.65;8.00;;;;;;;19.18;50.96;100672.94;4486253;32;34576;-89
2022/10/12 09:55:13;;;;;;;10.77;7.93;;;;;;;19.04;50.95;100667.22;4485361;32;33303;-81
2022/10/12 09:57:43;;;;;;;10.10;6.90;;;;;;;18.59;51.93;100665.47;4486148;32;34030;-82
2022/10/12 10:00:37;;;;;;;9.80;6.95;;;;;;;19.21;51.26;100668.81;4484941;32;34042;-87
2022/10/12 10:03:04;;;;;;;11.00;7.22;;;;;;;18.27;53.06;100676.81;4483820;31;33810;-88
2022/10/12 10:05:34;;;;;;;13.25;7.50;;;;;;;18.09;53.06;100673.53;4486191;32;33468;-94
2022/10/12 10:08:13;;;;;;;13.18;6.93;;;;;;;18.30;54.56;100670.78;4486250;32;33868;-94
2022/10/12 10:11:14;;;;;;;9.30;6.30;;;;;;;18.83;52.21;100676.69;4486051;32;34542;-81
2022/10/12 10:13:46;;;;;;;12.13;6.95;;;;;;;18.47;52.99;100671.28;4463715;32;33755;-81
2022/10/12 10:16:15;;;;;;;8.43;6.10;;;;;;;18.63;52.20;100677.56;4485055;32;35057;-80
2022/10/12 10:18:47;;;;;;;8.13;6.07;;;;;;;19.18;51.20;100672.94;4486326;31;33910;-93
2022/10/12 10:21:24;;;;;;;9.60;6.72;;;;;;;19.21;51.43;100671.56;4485909;32;35132;-81
2022/10/12 10:24:03;;;;;;;8.68;6.62;;;;;;;19.64;51.10;100677.34;4485076;32;34526;-77
2022/10/12 10:26:58;;;;;;;9.63;6.20;;;;;;;20.05;50.10;100671.50;4484350;32;33509;-77
2022/10/12 10:29:40;;;;;;;9.52;6.37;;;;;;;19.93;47.49;100662.81;4484753;32;34844;-76
2022/10/12 10:32:27;;;;;;;9.60;5.72;;;;;;;19.65;48.31;100670.69;4482110;32;34755;-75
2022/10/12 10:35:02;;;;;;;9.45;5.82;;;;;;;19.47;48.99;100666.72;4484123;32;34530;-78
2022/10/12 10:37:30;;;;;;;7.55;5.35;;;;;;;19.39;49.43;100675.56;4484749;32;33396;-76
2022/10/12 10:39:58;;;;;;;10.13;5.97;;;;;;;19.46;48.01;100671.41;4484510;32;34659;-77
2022/10/12 10:42:30;;;;;;;9.40;5.62;;;;;;;19.54;47.79;100666.38;4485765;32;33858;-77
2022/10/12 10:45:01;;;;;;;12.13;6.00;;;;;;;19.28;48.79;100672.06;4485231;32;33913;-78
2022/10/12 10:47:31;;;;;;;10.32;6.05;;;;;;;18.89;50.05;100670.06;4484465;32;33169;-79
2022/10/12 10:50:00;;;;;;;10.10;5.85;;;;;;;19.43;50.56;100676.63;4484504;32;34746;-78
2022/10/12 10:52:33;;;;;;;10.77;6.30;;;;;;;19.57;50.33;100674.91;4485811;32;33915;-79
2022/10/12 10:55:17;;;;;;;10.10;6.30;;;;;;;19.49;50.38;100671.94;4483897;32;33870;-79
2022/10/12 10:58:05;;;;;;;8.77;5.85;;;;;;;19.33;48.33;100669.28;4484725;32;34175;-78
2022/10/12 11:00:39;;;;;;;10.48;5.82;;;;;;;19.55;48.88;100662.53;4483946;32;33652;-81
2022/10/12 11:03:20;;;;;;;8.43;5.93;;;;;;;20.06;48.87;100659.38;4486016;32;34324;-78
2022/10/12 11:06:14;;;;;;;9.65;5.87;;;;;;;19.97;48.60;100653.66;4484453;32;33698;-81
2022/10/12 11:08:42;;;;;;;9.38;6.20;;;;;;;20.52;47.12;100658.06;4485504;32;33703;-84
2022/10/12 11:11:19;;;;;;;9.38;5.78;;;;;;;20.02;46.95;100658.31;4485588;32;34791;-91
2022/10/12 11:14:10;;;;;;;9.10;5.90;;;;;;;20.57;47.18;100656.12;4483915;32;33996;-81
2022/10/12 11:16:48;;;;;;;9.10;5.25;;;;;;;20.40;45.90;100661.25;4472178;32;33629;-84
2022/10/12 11:19:33;;;;;;;7.68;5.45;;;;;;;20.28;46.35;100659.72;4485180;32;34207;-78
2022/10/12 11:22:09;;;;;;;;;;;;;;;20.03;47.78;100659.97;4484922;32;33816;-75
2022/10/12 11:24:42;;;;;;;7.68;5.25;;;;;;;19.99;46.30;100658.91;4485636;32;35440;-78
2022/10/12 11:27:12;;;;;;;8.18;5.07;;;;;;;19.79;47.27;100652.47;4484103;32;34196;-79
2022/10/12 11:29:40;;;;;;;7.68;5.00;;;;;;;20.07;46.14;100653.56;4483904;32;33333;-76
2022/10/12 11:32:20;;;;;;;8.90;5.00;;;;;;;19.84;45.61;100654.34;4483410;32;34635;-74